createdAt,value
2018-09-23T00:00:53.634Z,996.85
2018-09-23T00:01:53.693Z,996.81
2018-09-23T00:02:53.596Z,996.84
2018-09-23T00:03:53.580Z,996.76
2018-09-23T00:04:53.554Z,996.75
2018-09-23T00:05:53.528Z,996.71
2018-09-23T00:06:53.507Z,996.63
2018-09-23T00:07:53.491Z,996.58
2018-09-23T00:08:53.489Z,996.58
2018-09-23T00:09:53.453Z,996.57
2018-09-23T00:10:53.447Z,996.55
2018-09-23T00:11:53.415Z,996.57
2018-09-23T00:12:53.411Z,996.55
2018-09-23T00:13:53.370Z,996.58
2018-09-23T00:14:53.350Z,996.59
2018-09-23T00:15:53.338Z,996.63
2018-09-23T00:16:53.313Z,996.64
2018-09-23T00:17:53.297Z,996.63
2018-09-23T00:18:53.281Z,996.66
2018-09-23T00:19:53.281Z,996.64
2018-09-23T00:20:53.259Z,996.60
2018-09-23T00:21:53.222Z,996.62
2018-09-23T00:22:53.198Z,996.59
2018-09-23T00:23:53.207Z,996.59
2018-09-23T00:24:53.153Z,996.59
2018-09-23T00:25:53.141Z,996.58
2018-09-23T00:26:53.121Z,996.55
2018-09-23T00:27:53.146Z,996.53
2018-09-23T00:28:53.272Z,996.53
2018-09-23T00:29:53.169Z,996.52
2018-09-23T00:30:53.047Z,996.49
2018-09-23T00:31:53.027Z,996.48
2018-09-23T00:32:53.005Z,996.48
2018-09-23T00:33:52.982Z,996.44
2018-09-23T00:34:52.970Z,996.40
2018-09-23T00:35:52.944Z,996.35
2018-09-23T00:36:52.941Z,996.35
2018-09-23T00:37:52.919Z,996.30
2018-09-23T00:38:52.894Z,996.26
2018-09-23T00:39:52.872Z,996.23
2018-09-23T00:40:52.853Z,996.17
2018-09-23T00:41:52.830Z,996.19
2018-09-23T00:42:52.814Z,996.20
2018-09-23T00:43:52.793Z,996.16
2018-09-23T00:44:52.769Z,996.16
2018-09-23T00:45:52.756Z,996.20
2018-09-23T00:46:52.750Z,996.24
2018-09-23T00:47:52.747Z,996.25
2018-09-23T00:48:52.698Z,996.24
2018-09-23T00:49:52.669Z,996.28
2018-09-23T00:50:52.654Z,996.22
2018-09-23T00:51:52.631Z,996.21
2018-09-23T00:52:52.631Z,996.22
2018-09-23T00:53:52.606Z,996.22
2018-09-23T00:54:52.580Z,996.20
2018-09-23T00:55:52.551Z,996.15
2018-09-23T00:56:52.535Z,996.15
2018-09-23T00:57:52.525Z,996.08
2018-09-23T00:58:52.509Z,996.08
2018-09-23T00:59:52.511Z,996.06
2018-09-23T01:00:52.454Z,996.05
2018-09-23T01:01:52.464Z,996.04
2018-09-23T01:02:52.412Z,996.07
2018-09-23T01:03:52.402Z,996.08
2018-09-23T01:04:52.377Z,996.08
2018-09-23T01:05:52.361Z,996.10
2018-09-23T01:06:52.335Z,996.11
2018-09-23T01:07:52.345Z,996.11
2018-09-23T01:08:52.294Z,996.10
2018-09-23T01:09:52.277Z,996.05
2018-09-23T01:10:52.258Z,996.02
2018-09-23T01:11:52.252Z,996.03
2018-09-23T01:12:52.223Z,995.98
2018-09-23T01:13:52.210Z,995.91
2018-09-23T01:14:52.185Z,995.89
2018-09-23T01:15:52.162Z,995.88
2018-09-23T01:16:52.153Z,995.85
2018-09-23T01:17:52.126Z,995.91
2018-09-23T01:18:52.118Z,995.86
2018-09-23T01:19:52.085Z,995.86
2018-09-23T01:20:52.089Z,995.88
2018-09-23T01:21:52.050Z,995.81
2018-09-23T01:22:52.035Z,995.80
2018-09-23T01:23:52.005Z,995.79
2018-09-23T01:24:51.986Z,995.80
2018-09-23T01:25:51.963Z,995.77
2018-09-23T01:26:51.976Z,995.77
2018-09-23T01:27:51.932Z,995.76
2018-09-23T01:28:51.902Z,995.74
2018-09-23T01:29:51.885Z,995.71
2018-09-23T01:30:51.879Z,995.66
2018-09-23T01:31:51.865Z,995.62
2018-09-23T01:32:51.837Z,995.62
2018-09-23T01:33:51.853Z,995.63
2018-09-23T01:34:51.895Z,995.62
2018-09-23T01:35:51.882Z,995.62
2018-09-23T01:36:51.786Z,995.64
2018-09-23T01:37:51.763Z,995.58
2018-09-23T01:38:51.713Z,995.60
2018-09-23T01:39:51.691Z,995.59
2018-09-23T01:40:51.718Z,995.57
2018-09-23T01:41:51.653Z,995.47
2018-09-23T01:42:51.634Z,995.45
2018-09-23T01:43:51.633Z,995.45
2018-09-23T01:44:51.605Z,995.42
2018-09-23T01:45:51.646Z,995.39
2018-09-23T01:46:51.553Z,995.41
2018-09-23T01:47:51.541Z,995.40
2018-09-23T01:48:51.515Z,995.37
2018-09-23T01:49:51.547Z,995.37
2018-09-23T01:50:51.518Z,995.35
2018-09-23T01:51:51.465Z,995.30
2018-09-23T01:52:52.154Z,995.35
2018-09-23T01:53:51.454Z,995.30
2018-09-23T01:54:51.398Z,995.32
2018-09-23T01:55:51.387Z,995.26
2018-09-23T01:56:51.364Z,995.26
2018-09-23T01:57:51.355Z,995.28
2018-09-23T01:58:51.341Z,995.23
2018-09-23T01:59:51.307Z,995.22
2018-09-23T02:00:51.278Z,995.19
2018-09-23T02:01:51.260Z,995.22
2018-09-23T02:02:51.260Z,995.22
2018-09-23T02:03:51.237Z,995.16
2018-09-23T02:04:51.208Z,995.14
2018-09-23T02:05:51.196Z,995.15
2018-09-23T02:06:51.170Z,995.13
2018-09-23T02:07:51.151Z,995.12
2018-09-23T02:08:51.125Z,995.11
2018-09-23T02:09:51.104Z,995.12
2018-09-23T02:10:51.092Z,995.10
2018-09-23T02:11:51.079Z,995.11
2018-09-23T02:12:51.058Z,995.07
2018-09-23T02:13:51.072Z,995.10
2018-09-23T02:14:51.054Z,995.05
2018-09-23T02:15:51.015Z,995.00
2018-09-23T02:16:50.969Z,995.03
2018-09-23T02:17:50.950Z,995.02
2018-09-23T02:18:50.928Z,994.99
2018-09-23T02:19:50.922Z,994.96
2018-09-23T02:20:50.897Z,994.96
2018-09-23T02:21:50.906Z,994.92
2018-09-23T02:22:51.662Z,994.90
2018-09-23T02:23:50.877Z,994.85
2018-09-23T02:24:50.817Z,994.84
2018-09-23T02:25:50.989Z,994.76
2018-09-23T02:26:50.788Z,994.77
2018-09-23T02:27:50.792Z,994.68
2018-09-23T02:28:50.744Z,994.66
2018-09-23T02:29:50.730Z,994.65
2018-09-23T02:30:50.710Z,994.64
2018-09-23T02:31:50.682Z,994.58
2018-09-23T02:32:50.673Z,994.60
2018-09-23T02:33:50.643Z,994.53
2018-09-23T02:34:50.631Z,994.53
2018-09-23T02:35:50.613Z,994.50
2018-09-23T02:36:50.576Z,994.50
2018-09-23T02:37:50.598Z,994.50
2018-09-23T02:38:50.550Z,994.43
2018-09-23T02:39:50.535Z,994.39
2018-09-23T02:40:50.515Z,994.32
2018-09-23T02:41:50.487Z,994.30
2018-09-23T02:42:50.484Z,994.23
2018-09-23T02:43:50.468Z,994.17
2018-09-23T02:44:50.427Z,994.13
2018-09-23T02:45:50.410Z,994.13
2018-09-23T02:46:50.398Z,994.09
2018-09-23T02:47:50.370Z,994.07
2018-09-23T02:48:50.366Z,994.05
2018-09-23T02:49:50.327Z,994.04
2018-09-23T02:50:50.344Z,994.01
2018-09-23T02:51:50.295Z,993.96
2018-09-23T02:52:50.269Z,994.01
2018-09-23T02:53:50.252Z,993.96
2018-09-23T02:54:50.262Z,993.93
2018-09-23T02:55:50.210Z,993.89
2018-09-23T02:56:50.191Z,993.88
2018-09-23T02:57:50.250Z,993.87
2018-09-23T02:58:50.150Z,993.84
2018-09-23T02:59:50.141Z,993.82
2018-09-23T03:00:50.134Z,993.85
2018-09-23T03:01:50.122Z,993.80
2018-09-23T03:02:50.087Z,993.83
2018-09-23T03:03:50.070Z,993.84
2018-09-23T03:04:50.035Z,993.74
2018-09-23T03:05:50.014Z,993.72
2018-09-23T03:06:50.000Z,993.70
2018-09-23T03:07:49.991Z,993.70
2018-09-23T03:08:49.958Z,993.68
2018-09-23T03:09:49.973Z,993.67
2018-09-23T03:10:49.927Z,993.64
2018-09-23T03:11:49.910Z,993.64
2018-09-23T03:12:49.885Z,993.64
2018-09-23T03:13:49.869Z,993.62
2018-09-23T03:14:49.846Z,993.61
2018-09-23T03:15:49.830Z,993.59
2018-09-23T03:16:49.811Z,993.57
2018-09-23T03:17:49.795Z,993.56
2018-09-23T03:18:49.792Z,993.49
2018-09-23T03:19:49.773Z,993.49
2018-09-23T03:20:49.734Z,993.43
2018-09-23T03:21:49.715Z,993.46
2018-09-23T03:22:49.699Z,993.39
2018-09-23T03:23:49.689Z,993.35
2018-09-23T03:24:49.654Z,993.37
2018-09-23T03:25:49.631Z,993.33
2018-09-23T03:26:49.619Z,993.31
2018-09-23T03:27:49.593Z,993.27
2018-09-23T03:28:49.571Z,993.27
2018-09-23T03:29:49.558Z,993.23
2018-09-23T03:30:49.546Z,993.22
2018-09-23T03:31:49.531Z,993.20
2018-09-23T03:32:49.506Z,993.14
2018-09-23T03:33:49.476Z,993.12
2018-09-23T03:34:49.486Z,993.11
2018-09-23T03:35:49.464Z,993.10
2018-09-23T03:36:49.444Z,993.01
2018-09-23T03:37:49.400Z,992.94
2018-09-23T03:38:49.387Z,992.97
2018-09-23T03:39:49.383Z,992.99
2018-09-23T03:40:49.345Z,992.93
2018-09-23T03:41:49.343Z,992.87
2018-09-23T03:42:49.305Z,992.85
2018-09-23T03:43:49.288Z,992.85
2018-09-23T03:44:49.263Z,992.85
2018-09-23T03:45:49.250Z,992.86
2018-09-23T03:46:49.231Z,992.83
2018-09-23T03:47:49.216Z,992.79
2018-09-23T03:48:49.189Z,992.81
2018-09-23T03:49:49.177Z,992.79
2018-09-23T03:50:49.157Z,992.81
2018-09-23T03:51:49.148Z,992.75
2018-09-23T03:52:49.109Z,992.68
2018-09-23T03:53:49.091Z,992.69
2018-09-23T03:54:49.088Z,992.64
2018-09-23T03:55:49.049Z,992.62
2018-09-23T03:56:49.030Z,992.59
2018-09-23T03:57:49.070Z,992.58
2018-09-23T03:58:48.998Z,992.60
2018-09-23T03:59:48.972Z,992.54
2018-09-23T04:00:48.964Z,992.59
2018-09-23T04:01:48.935Z,992.58
2018-09-23T04:02:48.921Z,992.58
2018-09-23T04:03:48.886Z,992.52
2018-09-23T04:04:48.878Z,992.52
2018-09-23T04:05:48.860Z,992.53
2018-09-23T04:06:48.867Z,992.52
2018-09-23T04:07:48.822Z,992.50
2018-09-23T04:08:48.800Z,992.49
2018-09-23T04:09:49.689Z,992.46
2018-09-23T04:10:48.766Z,992.40
2018-09-23T04:11:48.756Z,992.39
2018-09-23T04:12:48.723Z,992.36
2018-09-23T04:13:48.711Z,992.35
2018-09-23T04:14:48.690Z,992.24
2018-09-23T04:15:48.662Z,992.38
2018-09-23T04:16:48.657Z,992.39
2018-09-23T04:17:48.626Z,992.43
2018-09-23T04:18:48.623Z,992.40
2018-09-23T04:19:48.580Z,992.39
2018-09-23T04:20:48.571Z,992.42
2018-09-23T04:21:48.548Z,992.38
2018-09-23T04:22:48.530Z,992.31
2018-09-23T04:23:49.247Z,992.42
2018-09-23T04:24:48.492Z,992.44
2018-09-23T04:25:48.488Z,992.39
2018-09-23T04:26:48.444Z,992.36
2018-09-23T04:27:48.430Z,992.36
2018-09-23T04:28:48.421Z,992.29
2018-09-23T04:29:48.389Z,992.27
2018-09-23T04:30:48.376Z,992.25
2018-09-23T04:31:48.354Z,992.25
2018-09-23T04:32:48.332Z,992.22
2018-09-23T04:33:48.351Z,992.19
2018-09-23T04:34:48.292Z,992.22
2018-09-23T04:35:48.338Z,992.16
2018-09-23T04:36:48.280Z,992.12
2018-09-23T04:37:48.240Z,992.14
2018-09-23T04:38:48.218Z,992.13
2018-09-23T04:39:48.222Z,992.07
2018-09-23T04:40:48.186Z,992.08
2018-09-23T04:41:48.190Z,992.01
2018-09-23T04:42:48.145Z,992.05
2018-09-23T04:43:48.114Z,991.96
2018-09-23T04:44:48.170Z,991.94
2018-09-23T04:45:48.089Z,992.00
2018-09-23T04:46:48.060Z,991.99
2018-09-23T04:47:48.072Z,991.95
2018-09-23T04:48:48.040Z,991.92
2018-09-23T04:49:48.021Z,991.88
2018-09-23T04:50:47.978Z,991.88
2018-09-23T04:51:47.976Z,991.82
2018-09-23T04:52:47.954Z,991.76
2018-09-23T04:53:47.948Z,991.77
2018-09-23T04:54:47.908Z,991.80
2018-09-23T04:55:47.922Z,991.76
2018-09-23T04:56:47.867Z,991.74
2018-09-23T04:57:47.919Z,991.74
2018-09-23T04:58:47.825Z,991.71
2018-09-23T04:59:47.813Z,991.67
2018-09-23T05:00:47.838Z,991.63
2018-09-23T05:01:47.781Z,991.71
2018-09-23T05:02:47.762Z,991.67
2018-09-23T05:03:47.737Z,991.67
2018-09-23T05:04:47.761Z,991.64
2018-09-23T05:05:47.709Z,991.68
2018-09-23T05:06:47.681Z,991.63
2018-09-23T05:07:47.655Z,991.67
2018-09-23T05:08:47.684Z,991.70
2018-09-23T05:09:47.648Z,991.70
2018-09-23T05:10:47.591Z,991.64
2018-09-23T05:11:47.608Z,991.62
2018-09-23T05:12:47.569Z,991.61
2018-09-23T05:13:47.537Z,991.62
2018-09-23T05:14:47.540Z,991.61
2018-09-23T05:15:47.525Z,991.59
2018-09-23T05:16:47.489Z,991.59
2018-09-23T05:17:47.456Z,991.66
2018-09-23T05:18:47.460Z,991.57
2018-09-23T05:19:47.441Z,991.53
2018-09-23T05:20:47.437Z,991.51
2018-09-23T05:21:47.412Z,991.51
2018-09-23T05:22:47.382Z,991.56
2018-09-23T05:23:47.355Z,991.54
2018-09-23T05:24:47.329Z,991.59
2018-09-23T05:25:47.312Z,991.57
2018-09-23T05:26:47.287Z,991.51
2018-09-23T05:27:47.268Z,991.53
2018-09-23T05:28:47.267Z,991.54
2018-09-23T05:29:47.226Z,991.53
2018-09-23T05:30:47.210Z,991.46
2018-09-23T05:31:47.192Z,991.40
2018-09-23T05:32:47.178Z,991.44
2018-09-23T05:33:47.161Z,991.43
2018-09-23T05:34:47.133Z,991.37
2018-09-23T05:35:47.120Z,991.34
2018-09-23T05:36:47.127Z,991.25
2018-09-23T05:37:47.090Z,991.26
2018-09-23T05:38:47.709Z,991.31
2018-09-23T05:39:47.042Z,991.24
2018-09-23T05:40:47.020Z,991.23
2018-09-23T05:41:47.006Z,991.24
2018-09-23T05:42:46.993Z,991.27
2018-09-23T05:43:46.959Z,991.22
2018-09-23T05:44:46.943Z,991.21
2018-09-23T05:45:46.927Z,991.20
2018-09-23T05:46:46.905Z,991.16
2018-09-23T05:47:46.917Z,991.14
2018-09-23T05:48:46.867Z,991.14
2018-09-23T05:49:46.860Z,991.08
2018-09-23T05:50:46.851Z,991.14
2018-09-23T05:51:46.861Z,991.16
2018-09-23T05:52:46.867Z,991.12
2018-09-23T05:53:46.781Z,991.02
2018-09-23T05:54:46.825Z,991.04
2018-09-23T05:55:46.755Z,991.07
2018-09-23T05:56:46.710Z,991.04
2018-09-23T05:57:46.829Z,991.01
2018-09-23T05:58:46.832Z,991.03
2018-09-23T05:59:46.729Z,991.03
2018-09-23T06:00:46.758Z,990.98
2018-09-23T06:01:46.826Z,990.98
2018-09-23T06:02:46.720Z,990.98
2018-09-23T06:03:46.615Z,990.99
2018-09-23T06:04:46.570Z,990.98
2018-09-23T06:05:46.547Z,990.89
2018-09-23T06:06:46.547Z,990.90
2018-09-23T06:07:46.514Z,990.86
2018-09-23T06:08:46.599Z,990.92
2018-09-23T06:09:46.512Z,990.87
2018-09-23T06:10:46.461Z,990.81
2018-09-23T06:11:46.426Z,990.77
2018-09-23T06:12:46.420Z,990.80
2018-09-23T06:13:46.490Z,990.74
2018-09-23T06:14:46.416Z,990.72
2018-09-23T06:15:46.465Z,990.69
2018-09-23T06:16:46.355Z,990.70
2018-09-23T06:17:46.327Z,990.66
2018-09-23T06:18:46.307Z,990.63
2018-09-23T06:19:46.290Z,990.60
2018-09-23T06:20:46.267Z,990.67
2018-09-23T06:21:46.258Z,990.65
2018-09-23T06:22:46.229Z,990.61
2018-09-23T06:23:46.203Z,990.65
2018-09-23T06:24:46.194Z,990.66
2018-09-23T06:25:46.190Z,990.63
2018-09-23T06:26:46.155Z,990.54
2018-09-23T06:27:46.136Z,990.53
2018-09-23T06:28:46.117Z,990.54
2018-09-23T06:29:46.108Z,990.51
2018-09-23T06:30:46.100Z,990.54
2018-09-23T06:31:46.063Z,990.56
2018-09-23T06:32:46.057Z,990.52
2018-09-23T06:33:46.022Z,990.47
2018-09-23T06:34:46.024Z,990.45
2018-09-23T06:35:45.990Z,990.51
2018-09-23T06:36:45.973Z,990.52
2018-09-23T06:37:45.990Z,990.52
2018-09-23T06:38:45.935Z,990.51
2018-09-23T06:39:45.929Z,990.44
2018-09-23T06:40:45.889Z,990.50
2018-09-23T06:41:46.727Z,990.48
2018-09-23T06:42:45.854Z,990.52
2018-09-23T06:43:45.865Z,990.49
2018-09-23T06:44:45.823Z,990.54
2018-09-23T06:45:45.869Z,990.46
2018-09-23T06:46:45.806Z,990.45
2018-09-23T06:47:45.765Z,990.50
2018-09-23T06:48:45.746Z,990.42
2018-09-23T06:49:45.746Z,990.48
2018-09-23T06:50:45.728Z,990.37
2018-09-23T06:51:45.717Z,990.39
2018-09-23T06:52:45.673Z,990.41
2018-09-23T06:53:45.667Z,990.45
2018-09-23T06:54:45.651Z,990.31
2018-09-23T06:55:45.652Z,990.38
2018-09-23T06:56:45.608Z,990.29
2018-09-23T06:57:45.589Z,990.38
2018-09-23T06:58:45.571Z,990.29
2018-09-23T06:59:45.552Z,990.27
2018-09-23T07:00:45.543Z,990.34
2018-09-23T07:01:45.536Z,990.23
2018-09-23T07:02:45.510Z,990.24
2018-09-23T07:03:45.487Z,990.28
2018-09-23T07:04:45.540Z,990.20
2018-09-23T07:05:45.446Z,990.27
2018-09-23T07:06:45.433Z,990.22
2018-09-23T07:07:45.413Z,990.20
2018-09-23T07:08:45.404Z,990.22
2018-09-23T07:09:45.382Z,990.19
2018-09-23T07:10:45.356Z,990.27
2018-09-23T07:11:45.347Z,990.16
2018-09-23T07:12:45.359Z,990.20
2018-09-23T07:13:45.301Z,990.13
2018-09-23T07:14:45.298Z,990.07
2018-09-23T07:15:45.265Z,990.20
2018-09-23T07:16:45.254Z,990.11
2018-09-23T07:17:45.231Z,990.10
2018-09-23T07:18:45.218Z,990.15
2018-09-23T07:19:45.205Z,990.17
2018-09-23T07:20:45.179Z,990.11
2018-09-23T07:21:45.164Z,990.15
2018-09-23T07:22:45.140Z,990.17
2018-09-23T07:23:45.234Z,990.09
2018-09-23T07:24:45.117Z,990.14
2018-09-23T07:25:45.131Z,990.12
2018-09-23T07:26:45.099Z,990.11
2018-09-23T07:27:45.061Z,990.03
2018-09-23T07:28:45.051Z,990.08
2018-09-23T07:29:45.058Z,990.14
2018-09-23T07:30:45.011Z,990.12
2018-09-23T07:31:44.991Z,990.04
2018-09-23T07:32:44.980Z,990.13
2018-09-23T07:33:45.009Z,990.05
2018-09-23T07:34:44.946Z,990.05
2018-09-23T07:35:44.922Z,990.09
2018-09-23T07:36:44.966Z,990.14
2018-09-23T07:37:44.891Z,990.13
2018-09-23T07:38:44.866Z,990.14
2018-09-23T07:39:44.896Z,990.12
2018-09-23T07:40:44.837Z,990.16
2018-09-23T07:41:44.814Z,990.13
2018-09-23T07:42:44.807Z,990.12
2018-09-23T07:43:44.789Z,990.09
2018-09-23T07:44:44.776Z,990.03
2018-09-23T07:45:44.759Z,990.05
2018-09-23T07:46:44.747Z,990.12
2018-09-23T07:47:44.721Z,990.08
2018-09-23T07:48:44.707Z,990.03
2018-09-23T07:49:44.716Z,990.08
2018-09-23T07:50:44.681Z,990.01
2018-09-23T07:51:44.652Z,990.08
2018-09-23T07:52:44.743Z,989.94
2018-09-23T07:53:44.623Z,990.02
2018-09-23T07:54:44.614Z,989.94
2018-09-23T07:55:44.591Z,989.98
2018-09-23T07:56:44.585Z,989.86
2018-09-23T07:57:44.557Z,989.90
2018-09-23T07:58:44.542Z,989.93
2018-09-23T07:59:44.528Z,989.95
2018-09-23T08:00:44.506Z,990.00
2018-09-23T08:01:44.496Z,989.92
2018-09-23T08:02:44.518Z,989.97
2018-09-23T08:03:44.458Z,989.95
2018-09-23T08:04:44.447Z,990.00
2018-09-23T08:05:44.423Z,989.99
2018-09-23T08:06:44.426Z,989.95
2018-09-23T08:07:44.403Z,989.86
2018-09-23T08:08:44.420Z,989.95
2018-09-23T08:09:44.378Z,989.84
2018-09-23T08:10:44.362Z,989.91
2018-09-23T08:11:44.333Z,989.86
2018-09-23T08:12:44.441Z,989.81
2018-09-23T08:13:44.437Z,989.85
2018-09-23T08:14:44.675Z,989.93
2018-09-23T08:15:44.270Z,989.97
2018-09-23T08:16:44.247Z,989.91
2018-09-23T08:17:44.257Z,989.93
2018-09-23T08:18:44.256Z,989.93
2018-09-23T08:19:44.364Z,989.92
2018-09-23T08:20:44.204Z,989.87
2018-09-23T08:21:44.180Z,989.92
2018-09-23T08:22:44.184Z,989.84
2018-09-23T08:23:44.154Z,989.94
2018-09-23T08:24:44.136Z,989.80
2018-09-23T08:25:44.218Z,989.85
2018-09-23T08:26:44.102Z,989.81
2018-09-23T08:27:44.088Z,989.86
2018-09-23T08:28:44.072Z,989.77
2018-09-23T08:29:44.075Z,989.82
2018-09-23T08:30:44.046Z,989.83
2018-09-23T08:31:44.024Z,989.74
2018-09-23T08:32:44.010Z,989.78
2018-09-23T08:33:43.993Z,989.70
2018-09-23T08:34:44.005Z,989.71
2018-09-23T08:35:43.959Z,989.75
2018-09-23T08:36:43.954Z,989.79
2018-09-23T08:37:43.931Z,989.67
2018-09-23T08:38:43.917Z,989.64
2018-09-23T08:39:43.910Z,989.74
2018-09-23T08:40:43.891Z,989.70
2018-09-23T08:41:43.885Z,989.61
2018-09-23T08:42:43.867Z,989.56
2018-09-23T08:43:43.843Z,989.59
2018-09-23T08:44:43.826Z,989.64
2018-09-23T08:45:43.814Z,989.59
2018-09-23T08:46:43.811Z,989.58
2018-09-23T08:47:43.804Z,989.57
2018-09-23T08:48:43.769Z,989.57
2018-09-23T08:49:43.763Z,989.60
2018-09-23T08:50:43.763Z,989.61
2018-09-23T08:51:43.781Z,989.63
2018-09-23T08:52:43.712Z,989.50
2018-09-23T08:53:43.720Z,989.55
2018-09-23T08:54:43.710Z,989.52
2018-09-23T08:55:43.677Z,989.65
2018-09-23T08:56:43.662Z,989.46
2018-09-23T08:57:43.685Z,989.45
2018-09-23T08:58:43.664Z,989.49
2018-09-23T08:59:43.621Z,989.53
2018-09-23T09:00:43.606Z,989.45
2018-09-23T09:01:43.601Z,989.43
2018-09-23T09:02:43.581Z,989.43
2018-09-23T09:03:43.610Z,989.53
2018-09-23T09:04:43.549Z,989.49
2018-09-23T09:05:43.547Z,989.58
2018-09-23T09:06:43.517Z,989.38
2018-09-23T09:07:43.503Z,989.43
2018-09-23T09:08:43.490Z,989.57
2018-09-23T09:09:43.484Z,989.45
2018-09-23T09:10:43.462Z,989.35
2018-09-23T09:11:43.477Z,989.52
2018-09-23T09:12:43.440Z,989.38
2018-09-23T09:13:43.420Z,989.44
2018-09-23T09:14:43.408Z,989.44
2018-09-23T09:15:43.398Z,989.42
2018-09-23T09:16:43.378Z,989.26
2018-09-23T09:17:43.366Z,989.33
2018-09-23T09:18:43.493Z,989.31
2018-09-23T09:19:43.343Z,989.28
2018-09-23T09:20:43.325Z,989.33
2018-09-23T09:21:43.309Z,989.30
2018-09-23T09:22:43.300Z,989.37
2018-09-23T09:23:43.291Z,989.22
2018-09-23T09:24:43.274Z,989.12
2018-09-23T09:25:43.258Z,989.24
2018-09-23T09:26:43.275Z,989.21
2018-09-23T09:27:43.242Z,989.26
2018-09-23T09:28:43.220Z,989.09
2018-09-23T09:29:43.217Z,989.15
2018-09-23T09:30:43.207Z,989.13
2018-09-23T09:31:43.177Z,989.34
2018-09-23T09:32:43.159Z,989.16
2018-09-23T09:33:43.147Z,989.11
2018-09-23T09:34:43.137Z,989.14
2018-09-23T09:35:43.125Z,989.05
2018-09-23T09:36:43.111Z,989.06
2018-09-23T09:37:43.095Z,989.06
2018-09-23T09:38:43.082Z,988.98
2018-09-23T09:39:43.079Z,989.02
2018-09-23T09:40:43.063Z,989.03
2018-09-23T09:41:43.050Z,989.04
2018-09-23T09:42:43.044Z,989.03
2018-09-23T09:43:43.031Z,989.04
2018-09-23T09:44:43.015Z,989.04
2018-09-23T09:45:43.005Z,988.93
2018-09-23T09:46:42.992Z,989.02
2018-09-23T09:47:42.973Z,988.87
2018-09-23T09:48:42.986Z,988.94
2018-09-23T09:49:43.003Z,988.82
2018-09-23T09:50:42.944Z,988.91
2018-09-23T09:51:42.928Z,989.07
2018-09-23T09:52:42.915Z,988.76
2018-09-23T09:53:42.909Z,988.84
2018-09-23T09:54:42.889Z,988.86
2018-09-23T09:55:42.884Z,988.89
2018-09-23T09:56:42.864Z,988.77
2018-09-23T09:57:42.854Z,988.81
2018-09-23T09:58:42.846Z,988.79
2018-09-23T09:59:42.831Z,988.74
2018-09-23T10:00:42.822Z,988.69
2018-09-23T10:01:42.812Z,988.74
2018-09-23T10:02:42.797Z,988.78
2018-09-23T10:03:42.790Z,988.70
2018-09-23T10:04:42.780Z,988.70
2018-09-23T10:05:42.762Z,988.66
2018-09-23T10:06:42.752Z,988.64
2018-09-23T10:07:42.739Z,988.64
2018-09-23T10:08:42.719Z,988.59
2018-09-23T10:09:42.716Z,988.63
2018-09-23T10:10:42.704Z,988.52
2018-09-23T10:11:42.695Z,988.54
2018-09-23T10:12:42.678Z,988.51
2018-09-23T10:13:42.701Z,988.56
2018-09-23T10:14:42.674Z,988.42
2018-09-23T10:15:42.646Z,988.39
2018-09-23T10:16:42.680Z,988.56
2018-09-23T10:17:42.624Z,988.50
2018-09-23T10:18:42.611Z,988.47
2018-09-23T10:19:42.627Z,988.57
2018-09-23T10:20:42.582Z,988.44
2018-09-23T10:21:42.578Z,988.38
2018-09-23T10:22:42.666Z,988.45
2018-09-23T10:23:42.704Z,988.37
2018-09-23T10:24:42.547Z,988.39
2018-09-23T10:25:42.537Z,988.50
2018-09-23T10:26:42.530Z,988.37
2018-09-23T10:27:42.508Z,988.33
2018-09-23T10:28:42.499Z,988.42
2018-09-23T10:29:42.508Z,988.24
2018-09-23T10:30:42.476Z,988.14
2018-09-23T10:31:42.529Z,988.29
2018-09-23T10:32:42.444Z,988.25
2018-09-23T10:33:42.441Z,988.25
2018-09-23T10:34:42.438Z,988.24
2018-09-23T10:35:42.412Z,988.29
2018-09-23T10:36:42.416Z,988.25
2018-09-23T10:37:42.399Z,988.19
2018-09-23T10:38:42.386Z,988.29
2018-09-23T10:39:42.373Z,988.18
2018-09-23T10:40:42.360Z,988.10
2018-09-23T10:41:42.351Z,988.04
2018-09-23T10:42:42.341Z,988.12
2018-09-23T10:43:42.328Z,988.13
2018-09-23T10:44:42.322Z,988.13
2018-09-23T10:45:42.311Z,987.85
2018-09-23T10:46:42.295Z,988.00
2018-09-23T10:47:42.295Z,987.97
2018-09-23T10:48:42.279Z,987.97
2018-09-23T10:49:42.272Z,987.94
2018-09-23T10:50:42.250Z,987.94
2018-09-23T10:51:42.247Z,987.93
2018-09-23T10:52:42.228Z,987.97
2018-09-23T10:53:42.218Z,987.98
2018-09-23T10:54:42.217Z,987.95
2018-09-23T10:55:42.232Z,987.97
2018-09-23T10:56:42.187Z,987.92
2018-09-23T10:57:42.177Z,987.91
2018-09-23T10:58:42.173Z,987.86
2018-09-23T10:59:42.166Z,987.76
2018-09-23T11:00:42.151Z,987.84
2018-09-23T11:01:42.139Z,987.90
2018-09-23T11:02:42.129Z,987.90
2018-09-23T11:03:42.134Z,987.88
2018-09-23T11:04:42.107Z,987.90
2018-09-23T11:05:42.091Z,987.89
2018-09-23T11:06:42.108Z,987.82
2018-09-23T11:07:42.098Z,987.81
2018-09-23T11:08:42.065Z,987.66
2018-09-23T11:09:42.072Z,987.79
2018-09-23T11:10:42.043Z,987.66
2018-09-23T11:11:42.029Z,987.70
2018-09-23T11:12:42.021Z,987.75
2018-09-23T11:13:42.005Z,987.67
2018-09-23T11:14:42.009Z,987.67
2018-09-23T11:15:41.999Z,987.68
2018-09-23T11:16:41.970Z,987.61
2018-09-23T11:17:41.970Z,987.64
2018-09-23T11:18:41.947Z,987.54
2018-09-23T11:19:41.935Z,987.55
2018-09-23T11:20:41.925Z,987.47
2018-09-23T11:21:41.929Z,987.48
2018-09-23T11:22:41.905Z,987.49
2018-09-23T11:23:41.896Z,987.47
2018-09-23T11:24:41.924Z,987.43
2018-09-23T11:25:41.880Z,987.42
2018-09-23T11:26:41.875Z,987.40
2018-09-23T11:27:41.919Z,987.33
2018-09-23T11:28:41.851Z,987.28
2018-09-23T11:29:41.819Z,987.33
2018-09-23T11:30:41.832Z,987.22
2018-09-23T11:31:41.813Z,987.05
2018-09-23T11:32:41.787Z,987.12
2018-09-23T11:33:41.781Z,987.11
2018-09-23T11:34:41.771Z,987.01
2018-09-23T11:35:41.762Z,986.92
2018-09-23T11:36:42.351Z,986.94
2018-09-23T11:37:41.737Z,986.81
2018-09-23T11:38:41.717Z,986.88
2018-09-23T11:39:41.699Z,986.81
2018-09-23T11:40:41.692Z,986.81
2018-09-23T11:41:41.685Z,986.79
2018-09-23T11:42:41.683Z,986.82
2018-09-23T11:43:41.650Z,986.71
2018-09-23T11:44:41.653Z,986.77
2018-09-23T11:45:41.637Z,986.70
2018-09-23T11:46:41.622Z,986.64
2018-09-23T11:47:41.611Z,986.66
2018-09-23T11:48:41.596Z,986.58
2018-09-23T11:49:41.587Z,986.64
2018-09-23T11:50:41.580Z,986.49
2018-09-23T11:51:41.560Z,986.53
2018-09-23T11:52:41.933Z,986.52
2018-09-23T11:53:41.542Z,986.39
2018-09-23T11:54:41.558Z,986.47
2018-09-23T11:55:41.514Z,986.41
2018-09-23T11:56:41.504Z,986.35
2018-09-23T11:57:41.485Z,986.39
2018-09-23T11:58:41.481Z,986.25
2018-09-23T11:59:41.469Z,986.19
2018-09-23T12:00:41.457Z,986.15
2018-09-23T12:01:41.453Z,986.16
2018-09-23T12:02:41.441Z,986.13
2018-09-23T12:03:41.446Z,986.05
2018-09-23T12:04:41.418Z,986.04
2018-09-23T12:05:41.402Z,986.10
2018-09-23T12:06:41.389Z,986.09
2018-09-23T12:07:41.385Z,986.02
2018-09-23T12:08:41.370Z,985.98
2018-09-23T12:09:41.357Z,986.10
2018-09-23T12:10:41.423Z,985.95
2018-09-23T12:11:41.339Z,985.80
2018-09-23T12:12:41.332Z,985.78
2018-09-23T12:13:41.848Z,985.79
2018-09-23T12:14:41.354Z,985.74
2018-09-23T12:15:41.324Z,985.68
2018-09-23T12:16:41.294Z,985.72
2018-09-23T12:17:41.279Z,985.60
2018-09-23T12:18:41.266Z,985.58
2018-09-23T12:19:41.269Z,985.50
2018-09-23T12:20:41.253Z,985.41
2018-09-23T12:21:41.249Z,985.25
2018-09-23T12:22:41.238Z,985.36
2018-09-23T12:23:41.230Z,985.23
2018-09-23T12:24:41.219Z,985.02
2018-09-23T12:25:41.286Z,984.99
2018-09-23T12:26:41.211Z,985.24
2018-09-23T12:27:41.198Z,984.92
2018-09-23T12:28:41.188Z,984.92